createdAt,value
2019-03-13T00:01:23.724Z,9.29
2019-03-13T00:03:52.106Z,9.18
2019-03-13T00:06:24.247Z,9.17
2019-03-13T00:08:56.609Z,8.99
2019-03-13T00:11:28.476Z,8.54
2019-03-13T00:13:58.934Z,8.35
2019-03-13T00:16:29.686Z,8.22
2019-03-13T00:18:58.875Z,8.24
2019-03-13T00:21:29.043Z,8.08
2019-03-13T00:23:58.620Z,8.10
2019-03-13T00:26:29.427Z,7.75
2019-03-13T00:29:01.745Z,7.77
2019-03-13T00:31:31.159Z,7.71
2019-03-13T00:34:02.086Z,7.80
2019-03-13T00:36:31.191Z,7.67
2019-03-13T00:39:00.307Z,7.50
2019-03-13T00:41:29.413Z,7.30
2019-03-13T00:44:00.705Z,6.84
2019-03-13T00:46:29.467Z,7.04
2019-03-13T00:48:58.766Z,6.95
2019-03-13T00:51:28.972Z,6.82
2019-03-13T00:53:59.409Z,6.81
2019-03-13T00:56:31.703Z,7.04
2019-03-13T00:59:00.824Z,6.97
2019-03-13T01:01:44.105Z,6.87
2019-03-13T01:04:31.362Z,6.84
2019-03-13T01:07:06.301Z,6.73
2019-03-13T01:09:36.818Z,6.67
2019-03-13T01:12:07.283Z,6.97
2019-03-13T01:14:36.419Z,6.84
2019-03-13T01:17:07.803Z,6.81
2019-03-13T01:19:41.232Z,6.52
2019-03-13T01:22:10.851Z,6.53
2019-03-13T01:24:41.509Z,6.58
2019-03-13T01:27:12.354Z,6.62
2019-03-13T01:29:41.468Z,6.91
2019-03-13T01:32:41.546Z,6.33
2019-03-13T01:35:23.047Z,6.45
2019-03-13T01:37:55.473Z,6.39
2019-03-13T01:40:29.068Z,6.30
2019-03-13T01:42:59.880Z,6.34
2019-03-13T01:45:30.167Z,6.37
2019-03-13T01:48:01.022Z,6.23
2019-03-13T01:50:30.106Z,6.40
2019-03-13T01:53:00.972Z,6.46
2019-03-13T01:55:30.192Z,6.48
2019-03-13T01:57:59.299Z,6.62
2019-03-13T02:00:28.550Z,6.51
2019-03-13T02:02:58.767Z,6.51
2019-03-13T02:05:30.454Z,6.74
2019-03-13T02:08:01.053Z,6.82
2019-03-13T02:10:32.632Z,6.79
2019-03-13T02:13:01.784Z,6.64
2019-03-13T02:15:33.119Z,6.62
2019-03-13T02:18:06.569Z,6.94
2019-03-13T02:20:44.776Z,6.68
2019-03-13T02:23:17.127Z,6.94
2019-03-13T02:25:46.323Z,7.03
2019-03-13T02:28:15.412Z,7.24
2019-03-13T02:30:48.554Z,7.10
2019-03-13T02:33:19.854Z,6.76
2019-03-13T02:36:01.224Z,6.68
2019-03-13T02:38:30.350Z,6.59
2019-03-13T02:40:59.431Z,6.33
2019-03-13T02:43:29.601Z,6.67
2019-03-13T02:46:00.446Z,6.81
2019-03-13T02:48:29.541Z,6.89
2019-03-13T02:50:59.940Z,6.71
2019-03-13T02:53:29.033Z,7.00
2019-03-13T02:56:00.724Z,7.46
2019-03-13T02:58:31.531Z,7.16
2019-03-13T03:01:18.056Z,7.03
2019-03-13T03:03:54.580Z,7.07
2019-03-13T03:06:32.488Z,7.14
2019-03-13T03:09:07.293Z,6.98
2019-03-13T03:11:36.895Z,7.13
2019-03-13T03:14:06.548Z,6.58
2019-03-13T03:16:38.156Z,6.73
2019-03-13T03:19:07.272Z,6.63
2019-03-13T03:21:37.608Z,6.84
2019-03-13T03:24:08.034Z,6.85
2019-03-13T03:26:37.155Z,6.59
2019-03-13T03:29:11.239Z,6.54
2019-03-13T03:31:48.230Z,6.44
2019-03-13T03:34:23.561Z,6.77
2019-03-13T03:36:54.267Z,6.67
2019-03-13T03:39:23.424Z,6.38
2019-03-13T03:41:58.284Z,6.51
2019-03-13T03:44:29.839Z,6.29
2019-03-13T03:46:59.402Z,6.40
2019-03-13T03:49:30.612Z,6.38
2019-03-13T03:52:02.340Z,6.38
2019-03-13T03:54:32.439Z,6.65
2019-03-13T03:57:03.352Z,6.43
2019-03-13T03:59:33.556Z,6.64
2019-03-13T04:02:04.515Z,6.81
2019-03-13T04:04:34.688Z,6.38
2019-03-13T04:07:03.813Z,6.50
2019-03-13T04:09:32.898Z,6.68
2019-03-13T04:12:04.340Z,6.61
2019-03-13T04:14:33.512Z,6.41
2019-03-13T04:17:02.615Z,6.34
2019-03-13T04:19:31.682Z,6.21
2019-03-13T04:22:00.792Z,6.09
2019-03-13T04:24:29.856Z,6.25
2019-03-13T04:26:58.973Z,6.26
2019-03-13T04:29:29.849Z,6.52
2019-03-13T04:31:58.961Z,6.44
2019-03-13T04:34:28.067Z,6.58
2019-03-13T04:36:57.202Z,6.15
2019-03-13T04:39:28.368Z,5.96
2019-03-13T04:42:03.168Z,6.15
2019-03-13T04:44:39.905Z,6.27
2019-03-13T04:47:11.101Z,6.35
2019-03-13T04:49:40.799Z,6.15
2019-03-13T04:52:13.559Z,6.23
2019-03-13T04:54:44.233Z,6.11
2019-03-13T04:57:13.342Z,6.32
2019-03-13T04:59:51.727Z,6.48
2019-03-13T05:02:22.215Z,6.45
2019-03-13T05:04:53.819Z,6.24
2019-03-13T05:07:23.319Z,6.14
2019-03-13T05:09:55.657Z,6.35
2019-03-13T05:12:29.206Z,6.47
2019-03-13T05:14:58.746Z,6.79
2019-03-13T05:17:32.848Z,7.14
2019-03-13T05:20:07.177Z,7.78
2019-03-13T05:22:36.247Z,6.97
2019-03-13T05:25:05.732Z,7.28
2019-03-13T05:27:37.408Z,7.56
2019-03-13T05:30:06.803Z,7.63
2019-03-13T05:32:35.936Z,6.84
2019-03-13T05:35:05.280Z,7.23
2019-03-13T05:37:34.470Z,7.08
2019-03-13T05:40:03.962Z,7.07
2019-03-13T05:42:34.157Z,7.10
2019-03-13T05:45:08.431Z,6.68
2019-03-13T05:47:39.826Z,6.61
2019-03-13T05:50:10.468Z,6.62
2019-03-13T05:52:39.866Z,6.66
2019-03-13T05:55:09.090Z,6.65
2019-03-13T05:57:39.764Z,6.48
2019-03-13T06:00:09.068Z,6.19
2019-03-13T06:02:47.563Z,5.86
2019-03-13T06:05:14.284Z,6.00
2019-03-13T06:07:46.579Z,5.91
2019-03-13T06:10:17.284Z,6.05
2019-03-13T06:12:46.455Z,5.96
2019-03-13T06:15:15.736Z,5.95
2019-03-13T06:17:45.007Z,6.02
2019-03-13T06:20:23.569Z,6.09
2019-03-13T06:22:56.100Z,6.27
2019-03-13T06:25:25.213Z,6.03
2019-03-13T06:27:58.621Z,6.06
2019-03-13T06:30:32.286Z,6.00
2019-03-13T06:33:01.401Z,5.94
2019-03-13T06:35:34.856Z,5.09
2019-03-13T06:38:07.058Z,4.86
2019-03-13T06:40:38.296Z,4.70
2019-03-13T06:43:07.345Z,4.79
2019-03-13T06:45:37.214Z,4.81
2019-03-13T06:48:06.569Z,4.66
2019-03-13T06:50:40.151Z,4.55
2019-03-13T06:53:10.291Z,4.43
2019-03-13T06:55:39.629Z,4.72
2019-03-13T06:58:08.843Z,4.74
2019-03-13T07:00:56.620Z,4.96
2019-03-13T07:03:31.940Z,4.96
2019-03-13T07:06:22.850Z,5.10
2019-03-13T07:09:20.035Z,5.27
2019-03-13T07:12:00.220Z,5.28
2019-03-13T07:14:45.369Z,5.33
2019-03-13T07:17:35.804Z,5.46
2019-03-13T07:20:16.445Z,5.65
2019-03-13T07:22:53.506Z,5.78
2019-03-13T07:25:36.111Z,5.79
2019-03-13T07:28:16.333Z,5.87
2019-03-13T07:31:08.451Z,5.92
2019-03-13T07:34:10.132Z,6.18
2019-03-13T07:36:51.884Z,5.92
2019-03-13T07:39:58.182Z,6.12
2019-03-13T07:42:57.620Z,6.44
2019-03-13T07:45:36.577Z,6.54
2019-03-13T07:48:27.073Z,6.83
2019-03-13T07:51:07.315Z,6.78
2019-03-13T07:54:06.203Z,6.60
2019-03-13T07:56:57.305Z,6.55
2019-03-13T07:59:57.416Z,6.57
2019-03-13T08:02:37.481Z,6.69
2019-03-13T08:05:16.686Z,7.14
2019-03-13T08:08:12.339Z,7.28
2019-03-13T08:11:01.146Z,7.02
2019-03-13T08:13:51.735Z,7.28
2019-03-13T08:16:29.008Z,7.18
2019-03-13T08:19:19.945Z,7.44
2019-03-13T08:22:08.140Z,7.27
2019-03-13T08:24:57.705Z,7.52
2019-03-13T08:27:34.017Z,7.30
2019-03-13T08:30:23.623Z,7.48
2019-03-13T08:32:59.485Z,7.60
2019-03-13T08:35:47.377Z,7.10
2019-03-13T08:38:29.028Z,7.50
2019-03-13T08:41:04.228Z,7.47
2019-03-13T08:43:59.233Z,7.05
2019-03-13T08:46:50.293Z,7.18
2019-03-13T08:49:29.399Z,7.10
2019-03-13T08:52:16.942Z,7.19
2019-03-13T08:55:05.662Z,7.28
2019-03-13T08:57:57.116Z,7.44
2019-03-13T09:00:44.280Z,7.29
2019-03-13T09:03:27.941Z,7.44
2019-03-13T09:06:18.741Z,7.88
2019-03-13T09:09:05.383Z,7.65
2019-03-13T09:11:58.687Z,7.76
2019-03-13T09:14:49.719Z,7.93
2019-03-13T09:17:34.995Z,7.71
2019-03-13T09:20:35.441Z,7.90
2019-03-13T09:23:18.249Z,7.94
2019-03-13T09:26:24.241Z,8.23
2019-03-13T09:29:18.325Z,8.39
2019-03-13T09:32:11.180Z,8.46
2019-03-13T09:35:02.082Z,8.27
2019-03-13T09:37:42.482Z,7.78
2019-03-13T09:40:19.102Z,7.77
2019-03-13T09:43:24.382Z,7.78
2019-03-13T09:46:17.453Z,7.79
2019-03-13T09:49:15.002Z,8.03
2019-03-13T09:51:53.236Z,8.21
2019-03-13T09:54:58.518Z,8.01
2019-03-13T09:57:47.164Z,8.04
2019-03-13T10:00:35.405Z,8.03
2019-03-13T10:03:24.417Z,8.14
2019-03-13T10:06:08.827Z,7.66
2019-03-13T10:09:07.914Z,7.98
2019-03-13T10:11:46.234Z,7.81
2019-03-13T10:14:43.543Z,7.74
2019-03-13T10:17:39.559Z,7.34
2019-03-13T10:20:26.903Z,7.29
2019-03-13T10:23:15.458Z,-2.61
2019-03-13T10:26:05.733Z,7.59
2019-03-13T10:28:53.873Z,7.47
2019-03-13T10:31:47.956Z,7.95
2019-03-13T10:34:39.119Z,7.88
2019-03-13T10:37:13.587Z,7.92
2019-03-13T10:40:05.219Z,7.64
2019-03-13T10:43:02.341Z,7.73
2019-03-13T10:45:47.546Z,7.56
2019-03-13T10:48:26.749Z,8.00
2019-03-13T10:51:13.497Z,8.19
2019-03-13T10:53:47.910Z,8.06
2019-03-13T10:56:38.416Z,8.21
2019-03-13T10:59:19.355Z,8.05
2019-03-13T11:02:08.252Z,7.95
2019-03-13T11:05:11.103Z,7.67
2019-03-13T11:07:59.288Z,7.49
2019-03-13T11:10:40.676Z,7.75
2019-03-13T11:13:24.063Z,7.96
2019-03-13T11:16:15.130Z,7.59
2019-03-13T11:18:56.420Z,7.71
2019-03-13T11:21:43.793Z,7.37
2019-03-13T11:24:28.261Z,7.64
2019-03-13T11:27:13.286Z,7.70
2019-03-13T11:30:07.410Z,7.90
2019-03-13T11:33:01.819Z,7.60
2019-03-13T11:35:43.141Z,7.55
2019-03-13T11:38:32.632Z,7.82
2019-03-13T11:41:27.012Z,8.12
2019-03-13T11:44:12.515Z,8.06
2019-03-13T11:46:59.930Z,8.13
2019-03-13T11:49:46.856Z,7.76
2019-03-13T11:52:38.236Z,7.57
2019-03-13T11:55:29.063Z,7.45
2019-03-13T11:58:15.903Z,7.62
2019-03-13T12:01:06.618Z,7.62
2019-03-13T12:04:09.794Z,7.73
2019-03-13T12:07:13.381Z,7.76
2019-03-13T12:10:02.986Z,8.26
2019-03-13T12:12:50.002Z,8.08
2019-03-13T12:15:27.804Z,8.76
2019-03-13T12:18:25.177Z,8.10
2019-03-13T12:21:11.995Z,8.26
2019-03-13T12:24:02.677Z,7.77
2019-03-13T12:26:50.954Z,8.03
2019-03-13T12:29:28.792Z,8.00
2019-03-13T12:32:26.474Z,7.89
2019-03-13T12:35:19.171Z,7.79
2019-03-13T12:38:08.925Z,8.18
2019-03-13T12:40:59.144Z,8.47
2019-03-13T12:44:05.659Z,9.08
2019-03-13T12:46:42.807Z,9.41
2019-03-13T12:49:31.434Z,9.34
2019-03-13T12:52:19.493Z,8.90
2019-03-13T12:55:16.662Z,8.71
2019-03-13T12:58:15.126Z,8.39
2019-03-13T13:01:08.581Z,8.54
2019-03-13T13:04:02.436Z,8.72
2019-03-13T13:06:48.948Z,8.70
2019-03-13T13:09:35.975Z,8.65
2019-03-13T13:12:19.919Z,8.75
2019-03-13T13:15:20.676Z,8.66
2019-03-13T13:18:17.631Z,8.29
2019-03-13T13:20:50.482Z,8.42
2019-03-13T13:23:24.550Z,8.73
2019-03-13T13:26:03.256Z,8.44
2019-03-13T13:28:32.425Z,9.15
2019-03-13T13:31:03.104Z,9.23
2019-03-13T13:33:32.401Z,9.04
2019-03-13T13:36:02.104Z,9.10
2019-03-13T13:38:33.919Z,9.08
2019-03-13T13:41:04.575Z,9.99
2019-03-13T13:43:37.319Z,9.36
2019-03-13T13:46:29.164Z,9.32
2019-03-13T13:48:58.359Z,9.45
2019-03-13T13:51:32.754Z,8.79
2019-03-13T13:54:02.103Z,8.69
2019-03-13T13:56:31.339Z,-0.42
2019-03-13T13:59:02.147Z,8.34
2019-03-13T14:01:31.208Z,8.50
2019-03-13T14:04:00.382Z,8.81
2019-03-13T14:06:29.548Z,8.85
2019-03-13T14:09:01.128Z,8.58
2019-03-13T14:11:33.870Z,9.03
2019-03-13T14:14:04.901Z,8.75
2019-03-13T14:16:37.635Z,8.66
2019-03-13T14:19:06.761Z,8.77
2019-03-13T14:21:39.444Z,8.95
2019-03-13T14:24:17.775Z,9.21
2019-03-13T14:26:50.893Z,8.61
2019-03-13T14:29:20.098Z,8.76
2019-03-13T14:31:49.515Z,8.82
2019-03-13T14:34:18.820Z,9.13
2019-03-13T14:36:51.174Z,9.39
2019-03-13T14:39:20.261Z,9.16
2019-03-13T14:41:49.577Z,9.22
2019-03-13T14:44:23.587Z,9.35
2019-03-13T14:46:53.679Z,9.41
2019-03-13T14:49:24.825Z,8.83
2019-03-13T14:51:55.188Z,8.90
2019-03-13T14:54:26.623Z,8.67
2019-03-13T14:56:55.699Z,8.65
2019-03-13T14:59:24.799Z,8.69
2019-03-13T15:01:53.918Z,8.38
2019-03-13T15:04:23.035Z,8.71
2019-03-13T15:06:52.220Z,8.95
2019-03-13T15:09:22.436Z,9.14
2019-03-13T15:11:54.443Z,9.06
2019-03-13T15:14:23.543Z,8.58
2019-03-13T15:16:55.591Z,9.38
2019-03-13T15:19:24.668Z,9.32
2019-03-13T15:21:55.482Z,8.68
2019-03-13T15:24:24.589Z,8.46
2019-03-13T15:26:55.142Z,8.48
2019-03-13T15:29:27.158Z,8.21
2019-03-13T15:31:57.515Z,8.30
2019-03-13T15:34:28.595Z,8.41
2019-03-13T15:36:57.712Z,8.16
2019-03-13T15:39:27.606Z,8.32
2019-03-13T15:41:58.697Z,7.91
2019-03-13T15:44:28.023Z,8.21
2019-03-13T15:46:57.107Z,8.43
2019-03-13T15:49:27.423Z,8.50
2019-03-13T15:51:56.536Z,8.51
2019-03-13T15:54:26.082Z,8.43
2019-03-13T15:57:01.408Z,8.08
2019-03-13T15:59:26.131Z,7.98
2019-03-13T16:01:55.267Z,8.32
2019-03-13T16:04:24.366Z,8.10
2019-03-13T16:06:53.454Z,8.10
2019-03-13T16:09:22.754Z,8.36
2019-03-13T16:11:54.805Z,8.06
2019-03-13T16:14:25.441Z,8.39
2019-03-13T16:16:54.955Z,8.29
2019-03-13T16:19:25.611Z,-0.28
2019-03-13T16:21:57.479Z,8.19
2019-03-13T16:24:37.847Z,8.04
2019-03-13T16:27:07.161Z,8.06
2019-03-13T16:29:37.400Z,7.90
2019-03-13T16:32:13.035Z,7.81
2019-03-13T16:34:42.119Z,8.29
2019-03-13T16:37:11.318Z,8.48
2019-03-13T16:39:40.458Z,8.28
2019-03-13T16:42:11.592Z,8.34
2019-03-13T16:44:40.794Z,8.63
2019-03-13T16:47:10.042Z,8.25
2019-03-13T16:49:41.233Z,8.67
2019-03-13T16:52:10.468Z,8.41
2019-03-13T16:54:39.608Z,8.31
2019-03-13T16:57:08.786Z,8.21
2019-03-13T16:59:39.733Z,7.94
2019-03-13T17:02:08.820Z,8.04
2019-03-13T17:04:37.968Z,8.38
2019-03-13T17:07:10.198Z,8.57
2019-03-13T17:09:39.368Z,8.23
2019-03-13T17:12:10.963Z,8.14
2019-03-13T17:14:40.075Z,8.01
2019-03-13T17:17:10.391Z,8.10
2019-03-13T17:19:41.106Z,8.25
2019-03-13T17:22:13.273Z,8.22
2019-03-13T17:24:43.587Z,8.02
2019-03-13T17:27:12.801Z,8.19
2019-03-13T17:29:44.483Z,8.13
2019-03-13T17:32:15.267Z,7.85
2019-03-13T17:34:55.714Z,7.79
2019-03-13T17:37:24.950Z,7.83
2019-03-13T17:40:00.156Z,7.68
2019-03-13T17:42:29.491Z,7.81
2019-03-13T17:44:58.759Z,7.80
2019-03-13T17:47:27.855Z,7.60
2019-03-13T17:49:56.936Z,7.66
2019-03-13T17:52:27.819Z,7.80
2019-03-13T17:54:57.034Z,7.51
2019-03-13T17:57:26.124Z,7.70
2019-03-13T17:59:55.219Z,7.62
2019-03-13T18:02:24.297Z,7.79
2019-03-13T18:04:53.492Z,7.70
2019-03-13T18:07:24.303Z,7.60
2019-03-13T18:09:53.411Z,7.59
2019-03-13T18:12:24.323Z,7.55
2019-03-13T18:14:53.553Z,7.47
2019-03-13T18:17:26.796Z,7.53
2019-03-13T18:19:56.291Z,7.58
2019-03-13T18:22:25.735Z,7.34
2019-03-13T18:24:55.027Z,7.34
2019-03-13T18:27:29.767Z,7.26
2019-03-13T18:29:58.883Z,7.27
2019-03-13T18:32:41.302Z,7.19
2019-03-13T18:35:01.392Z,7.03
2019-03-13T18:37:30.496Z,6.83
2019-03-13T18:40:01.140Z,6.58
2019-03-13T18:42:30.237Z,6.66
2019-03-13T18:44:59.368Z,6.27
2019-03-13T18:47:29.888Z,6.62
2019-03-13T18:50:01.104Z,6.31
2019-03-13T18:52:30.441Z,6.19
2019-03-13T18:54:59.553Z,6.29
2019-03-13T18:57:30.068Z,6.22
2019-03-13T18:59:59.354Z,6.07
2019-03-13T19:02:33.680Z,5.90
2019-03-13T19:05:02.808Z,5.82
2019-03-13T19:07:36.083Z,6.02
2019-03-13T19:10:03.054Z,5.91
2019-03-13T19:12:35.671Z,6.10
2019-03-13T19:15:08.260Z,5.31
2019-03-13T19:17:43.394Z,5.76
2019-03-13T19:20:15.413Z,6.09
2019-03-13T19:22:46.194Z,6.10
2019-03-13T19:25:15.391Z,6.09
2019-03-13T19:27:44.542Z,5.83
2019-03-13T19:30:19.810Z,6.05
2019-03-13T19:32:52.328Z,5.97
2019-03-13T19:35:21.459Z,5.66
2019-03-13T19:37:50.599Z,5.95
2019-03-13T19:40:24.483Z,5.76
2019-03-13T19:42:53.650Z,5.70
2019-03-13T19:45:25.929Z,5.70
2019-03-13T19:47:55.677Z,5.91
2019-03-13T19:50:27.885Z,5.84
2019-03-13T19:53:00.339Z,5.69
2019-03-13T19:55:29.420Z,5.68
2019-03-13T19:57:59.049Z,5.77
2019-03-13T20:00:28.327Z,5.82
2019-03-13T20:03:00.252Z,5.92
2019-03-13T20:05:28.499Z,5.78
2019-03-13T20:07:59.706Z,5.89
2019-03-13T20:10:29.347Z,5.69
2019-03-13T20:12:58.500Z,5.90
2019-03-13T20:15:28.919Z,5.90
2019-03-13T20:17:58.006Z,6.03
2019-03-13T20:20:29.450Z,5.85
2019-03-13T20:22:59.875Z,5.89
2019-03-13T20:25:29.145Z,6.10
2019-03-13T20:27:58.231Z,6.33
2019-03-13T20:30:27.353Z,6.32
2019-03-13T20:32:58.928Z,6.52
2019-03-13T20:35:28.143Z,6.28
2019-03-13T20:37:58.932Z,6.35
2019-03-13T20:40:28.250Z,6.18
2019-03-13T20:43:01.983Z,6.48
2019-03-13T20:45:34.132Z,6.75
2019-03-13T20:48:03.297Z,6.70
2019-03-13T20:50:37.126Z,6.85
2019-03-13T20:53:03.542Z,6.60
2019-03-13T20:55:37.899Z,6.62
2019-03-13T20:58:06.999Z,6.81
2019-03-13T21:00:38.518Z,6.95
2019-03-13T21:03:09.735Z,6.74
2019-03-13T21:05:39.067Z,6.75
2019-03-13T21:08:09.272Z,7.15
2019-03-13T21:10:40.196Z,6.70
2019-03-13T21:13:12.611Z,7.05
2019-03-13T21:15:44.835Z,6.86
2019-03-13T21:18:13.968Z,7.07
2019-03-13T21:20:43.096Z,7.12
2019-03-13T21:23:12.223Z,7.07
2019-03-13T21:25:44.783Z,6.83
2019-03-13T21:28:15.174Z,6.65
2019-03-13T21:30:47.635Z,6.23
2019-03-13T21:33:18.209Z,6.32
2019-03-13T21:35:47.476Z,6.27
2019-03-13T21:38:16.590Z,6.41
2019-03-13T21:40:47.097Z,6.51
2019-03-13T21:43:16.609Z,6.43
2019-03-13T21:45:49.224Z,6.41
2019-03-13T21:48:20.518Z,6.45
2019-03-13T21:50:54.548Z,6.47
2019-03-13T21:53:27.885Z,6.53
2019-03-13T21:55:57.018Z,6.45
2019-03-13T21:58:26.339Z,6.51
2019-03-13T22:01:00.002Z,6.41
2019-03-13T22:03:32.435Z,6.31
2019-03-13T22:06:03.158Z,6.08
2019-03-13T22:08:32.276Z,6.16
2019-03-13T22:11:03.243Z,6.05
2019-03-13T22:13:32.803Z,6.18
2019-03-13T22:16:03.828Z,6.07
2019-03-13T22:18:36.484Z,5.94
2019-03-13T22:21:05.856Z,5.99
2019-03-13T22:23:37.355Z,6.06
2019-03-13T22:26:09.215Z,6.36
2019-03-13T22:28:38.459Z,6.29
2019-03-13T22:31:10.282Z,6.79
2019-03-13T22:33:39.862Z,6.58
2019-03-13T22:36:08.950Z,6.49
2019-03-13T22:38:38.069Z,6.14
2019-03-13T22:41:09.532Z,6.43
2019-03-13T22:43:38.846Z,6.27
2019-03-13T22:46:13.938Z,6.20
2019-03-13T22:48:58.167Z,6.21
2019-03-13T22:51:22.186Z,6.48
2019-03-13T22:53:51.415Z,6.41
2019-03-13T22:56:21.711Z,6.68
2019-03-13T22:58:52.010Z,6.23
2019-03-13T23:01:21.448Z,6.59
2019-03-13T23:03:51.381Z,6.46
2019-03-13T23:06:20.698Z,6.38
2019-03-13T23:08:49.820Z,6.50
2019-03-13T23:11:19.763Z,6.63
2019-03-13T23:13:49.032Z,6.74
2019-03-13T23:16:23.756Z,6.81
2019-03-13T23:18:52.979Z,6.45
2019-03-13T23:21:22.066Z,6.47
2019-03-13T23:23:51.169Z,6.53
2019-03-13T23:26:20.245Z,6.51
2019-03-13T23:28:50.776Z,6.70
2019-03-13T23:31:21.620Z,6.46
2019-03-13T23:34:00.987Z,6.44
2019-03-13T23:36:30.118Z,6.30
2019-03-13T23:39:02.459Z,6.43
2019-03-13T23:41:31.569Z,6.27
2019-03-13T23:44:00.885Z,6.39
2019-03-13T23:46:31.585Z,6.46
2019-03-13T23:49:00.686Z,6.57
2019-03-13T23:51:32.746Z,6.30
2019-03-13T23:54:01.874Z,6.33
2019-03-13T23:56:30.982Z,6.33
2019-03-13T23:59:00.143Z,6.31
